sensor_id;sensor_type;location;lat;lon;timestamp;P1;durP1;ratioP1;P2;durP2;ratioP2
47866;SDS011;33628;50.806;11.586;2023-05-17T00:01:43;6.53;;;2.50;;
47866;SDS011;33628;50.806;11.586;2023-05-17T00:04:10;7.97;;;1.52;;
47866;SDS011;33628;50.806;11.586;2023-05-17T00:06:37;8.38;;;1.50;;
47866;SDS011;33628;50.806;11.586;2023-05-17T00:09:05;6.68;;;2.28;;
47866;SDS011;33628;50.806;11.586;2023-05-17T00:11:32;4.25;;;1.42;;
47866;SDS011;33628;50.806;11.586;2023-05-17T00:13:59;8.13;;;1.45;;
47866;SDS011;33628;50.806;11.586;2023-05-17T00:16:26;4.00;;;1.58;;
47866;SDS011;33628;50.806;11.586;2023-05-17T00:18:52;3.58;;;1.50;;
47866;SDS011;33628;50.806;11.586;2023-05-17T00:21:19;5.20;;;1.70;;
47866;SDS011;33628;50.806;11.586;2023-05-17T00:23:46;2.38;;;1.33;;
47866;SDS011;33628;50.806;11.586;2023-05-17T00:26:14;4.43;;;1.60;;
47866;SDS011;33628;50.806;11.586;2023-05-17T00:28:41;4.97;;;1.60;;
47866;SDS011;33628;50.806;11.586;2023-05-17T00:31:07;4.88;;;1.48;;
47866;SDS011;33628;50.806;11.586;2023-05-17T00:33:34;3.65;;;1.40;;
47866;SDS011;33628;50.806;11.586;2023-05-17T00:36:01;3.03;;;1.30;;
47866;SDS011;33628;50.806;11.586;2023-05-17T00:38:28;5.90;;;1.55;;
47866;SDS011;33628;50.806;11.586;2023-05-17T00:40:55;7.63;;;1.52;;
47866;SDS011;33628;50.806;11.586;2023-05-17T00:43:23;7.40;;;1.50;;
47866;SDS011;33628;50.806;11.586;2023-05-17T00:45:50;6.15;;;1.52;;
47866;SDS011;33628;50.806;11.586;2023-05-17T00:48:17;4.05;;;1.60;;
47866;SDS011;33628;50.806;11.586;2023-05-17T00:50:45;4.90;;;1.55;;
47866;SDS011;33628;50.806;11.586;2023-05-17T00:53:14;3.90;;;1.60;;
47866;SDS011;33628;50.806;11.586;2023-05-17T00:55:41;4.60;;;1.65;;
47866;SDS011;33628;50.806;11.586;2023-05-17T00:58:09;5.25;;;1.40;;
47866;SDS011;33628;50.806;11.586;2023-05-17T01:00:37;6.65;;;1.55;;
47866;SDS011;33628;50.806;11.586;2023-05-17T01:03:04;5.38;;;1.70;;
47866;SDS011;33628;50.806;11.586;2023-05-17T01:05:31;6.47;;;1.95;;
47866;SDS011;33628;50.806;11.586;2023-05-17T01:08:01;3.33;;;1.65;;
47866;SDS011;33628;50.806;11.586;2023-05-17T01:10:33;6.10;;;1.63;;
47866;SDS011;33628;50.806;11.586;2023-05-17T01:13:04;5.35;;;1.65;;
47866;SDS011;33628;50.806;11.586;2023-05-17T01:15:37;5.68;;;1.70;;
47866;SDS011;33628;50.806;11.586;2023-05-17T01:18:08;2.90;;;1.80;;
47866;SDS011;33628;50.806;11.586;2023-05-17T01:20:40;6.00;;;1.60;;
47866;SDS011;33628;50.806;11.586;2023-05-17T01:23:26;5.28;;;1.60;;
47866;SDS011;33628;50.806;11.586;2023-05-17T01:26:03;6.78;;;1.52;;
47866;SDS011;33628;50.806;11.586;2023-05-17T01:28:35;3.85;;;1.63;;
47866;SDS011;33628;50.806;11.586;2023-05-17T01:31:02;5.10;;;2.38;;
47866;SDS011;33628;50.806;11.586;2023-05-17T01:33:30;2.00;;;1.50;;
47866;SDS011;33628;50.806;11.586;2023-05-17T01:35:56;2.78;;;1.40;;
47866;SDS011;33628;50.806;11.586;2023-05-17T01:38:23;6.07;;;1.20;;
47866;SDS011;33628;50.806;11.586;2023-05-17T01:40:51;3.00;;;1.48;;
47866;SDS011;33628;50.806;11.586;2023-05-17T01:43:23;5.10;;;1.88;;
47866;SDS011;33628;50.806;11.586;2023-05-17T01:45:59;3.78;;;1.52;;
47866;SDS011;33628;50.806;11.586;2023-05-17T01:48:30;4.70;;;1.33;;
47866;SDS011;33628;50.806;11.586;2023-05-17T01:50:59;4.07;;;1.30;;
47866;SDS011;33628;50.806;11.586;2023-05-17T01:53:28;3.90;;;1.40;;
47866;SDS011;33628;50.806;11.586;2023-05-17T01:55:56;3.22;;;1.38;;
47866;SDS011;33628;50.806;11.586;2023-05-17T01:58:28;5.03;;;1.27;;
47866;SDS011;33628;50.806;11.586;2023-05-17T02:00:55;2.35;;;1.98;;
47866;SDS011;33628;50.806;11.586;2023-05-17T02:03:23;5.28;;;1.23;;
47866;SDS011;33628;50.806;11.586;2023-05-17T02:05:52;3.10;;;1.40;;
47866;SDS011;33628;50.806;11.586;2023-05-17T02:08:19;2.75;;;1.08;;
47866;SDS011;33628;50.806;11.586;2023-05-17T02:10:46;4.18;;;1.40;;
47866;SDS011;33628;50.806;11.586;2023-05-17T02:13:12;4.68;;;1.50;;
47866;SDS011;33628;50.806;11.586;2023-05-17T02:15:39;5.53;;;1.50;;
47866;SDS011;33628;50.806;11.586;2023-05-17T02:18:07;2.92;;;1.30;;
47866;SDS011;33628;50.806;11.586;2023-05-17T02:20:35;7.97;;;2.03;;
47866;SDS011;33628;50.806;11.586;2023-05-17T02:23:01;4.65;;;2.20;;
47866;SDS011;33628;50.806;11.586;2023-05-17T02:25:28;2.83;;;1.48;;
47866;SDS011;33628;50.806;11.586;2023-05-17T02:27:54;4.95;;;1.50;;
47866;SDS011;33628;50.806;11.586;2023-05-17T02:30:21;4.07;;;1.35;;
47866;SDS011;33628;50.806;11.586;2023-05-17T02:32:48;3.50;;;1.33;;
47866;SDS011;33628;50.806;11.586;2023-05-17T02:35:16;2.53;;;1.20;;
47866;SDS011;33628;50.806;11.586;2023-05-17T02:37:42;2.20;;;1.23;;
47866;SDS011;33628;50.806;11.586;2023-05-17T02:40:12;9.95;;;1.77;;
47866;SDS011;33628;50.806;11.586;2023-05-17T02:42:39;3.40;;;1.17;;
47866;SDS011;33628;50.806;11.586;2023-05-17T02:45:06;5.82;;;1.30;;
47866;SDS011;33628;50.806;11.586;2023-05-17T02:47:32;2.05;;;1.05;;
47866;SDS011;33628;50.806;11.586;2023-05-17T02:49:59;3.75;;;1.38;;
47866;SDS011;33628;50.806;11.586;2023-05-17T02:52:28;6.20;;;1.20;;
47866;SDS011;33628;50.806;11.586;2023-05-17T02:54:55;7.00;;;1.42;;
47866;SDS011;33628;50.806;11.586;2023-05-17T02:57:21;5.53;;;1.50;;
47866;SDS011;33628;50.806;11.586;2023-05-17T02:59:48;4.03;;;1.30;;
47866;SDS011;33628;50.806;11.586;2023-05-17T03:02:15;3.35;;;1.42;;
47866;SDS011;33628;50.806;11.586;2023-05-17T03:04:42;2.92;;;1.27;;
47866;SDS011;33628;50.806;11.586;2023-05-17T03:07:09;3.38;;;1.10;;
47866;SDS011;33628;50.806;11.586;2023-05-17T03:09:38;3.28;;;1.23;;
47866;SDS011;33628;50.806;11.586;2023-05-17T03:12:07;4.07;;;1.05;;
47866;SDS011;33628;50.806;11.586;2023-05-17T03:14:34;4.32;;;1.30;;
47866;SDS011;33628;50.806;11.586;2023-05-17T03:17:01;3.85;;;1.67;;
47866;SDS011;33628;50.806;11.586;2023-05-17T03:19:29;3.17;;;1.23;;
47866;SDS011;33628;50.806;11.586;2023-05-17T03:21:56;6.13;;;1.40;;
47866;SDS011;33628;50.806;11.586;2023-05-17T03:24:22;6.63;;;1.38;;
47866;SDS011;33628;50.806;11.586;2023-05-17T03:26:51;4.20;;;1.73;;
47866;SDS011;33628;50.806;11.586;2023-05-17T03:29:18;3.03;;;1.35;;
47866;SDS011;33628;50.806;11.586;2023-05-17T03:31:45;4.85;;;1.52;;
47866;SDS011;33628;50.806;11.586;2023-05-17T03:34:13;7.45;;;1.50;;
47866;SDS011;33628;50.806;11.586;2023-05-17T03:36:40;2.92;;;1.30;;
47866;SDS011;33628;50.806;11.586;2023-05-17T03:39:07;3.67;;;1.00;;
47866;SDS011;33628;50.806;11.586;2023-05-17T03:41:36;2.90;;;1.13;;
47866;SDS011;33628;50.806;11.586;2023-05-17T03:44:04;6.05;;;1.40;;
47866;SDS011;33628;50.806;11.586;2023-05-17T03:46:32;7.30;;;1.30;;
47866;SDS011;33628;50.806;11.586;2023-05-17T03:48:59;6.05;;;1.02;;
47866;SDS011;33628;50.806;11.586;2023-05-17T03:51:28;7.35;;;1.50;;
47866;SDS011;33628;50.806;11.586;2023-05-17T03:53:57;2.90;;;1.30;;
47866;SDS011;33628;50.806;11.586;2023-05-17T03:56:25;4.22;;;1.40;;
47866;SDS011;33628;50.806;11.586;2023-05-17T03:58:52;6.15;;;1.83;;
47866;SDS011;33628;50.806;11.586;2023-05-17T04:01:21;7.38;;;1.40;;
47866;SDS011;33628;50.806;11.586;2023-05-17T04:03:47;2.47;;;1.30;;
47866;SDS011;33628;50.806;11.586;2023-05-17T04:06:15;8.68;;;1.40;;
47866;SDS011;33628;50.806;11.586;2023-05-17T04:08:42;3.80;;;1.83;;
47866;SDS011;33628;50.806;11.586;2023-05-17T04:11:09;4.13;;;1.52;;
47866;SDS011;33628;50.806;11.586;2023-05-17T04:13:37;2.70;;;2.17;;
47866;SDS011;33628;50.806;11.586;2023-05-17T04:16:05;3.95;;;1.65;;
47866;SDS011;33628;50.806;11.586;2023-05-17T04:18:35;11.48;;;2.13;;
47866;SDS011;33628;50.806;11.586;2023-05-17T04:21:03;7.68;;;2.55;;
47866;SDS011;33628;50.806;11.586;2023-05-17T04:23:32;8.77;;;2.72;;
47866;SDS011;33628;50.806;11.586;2023-05-17T04:25:59;5.05;;;1.90;;
47866;SDS011;33628;50.806;11.586;2023-05-17T04:28:28;5.57;;;1.55;;
47866;SDS011;33628;50.806;11.586;2023-05-17T04:30:55;5.35;;;1.50;;
47866;SDS011;33628;50.806;11.586;2023-05-17T04:33:22;3.67;;;1.50;;
47866;SDS011;33628;50.806;11.586;2023-05-17T04:35:52;5.88;;;1.83;;
47866;SDS011;33628;50.806;11.586;2023-05-17T04:38:20;3.75;;;2.10;;
47866;SDS011;33628;50.806;11.586;2023-05-17T04:40:53;6.20;;;1.55;;
47866;SDS011;33628;50.806;11.586;2023-05-17T04:43:21;2.08;;;1.45;;
47866;SDS011;33628;50.806;11.586;2023-05-17T04:45:48;3.70;;;1.58;;
47866;SDS011;33628;50.806;11.586;2023-05-17T04:48:15;2.42;;;1.35;;
47866;SDS011;33628;50.806;11.586;2023-05-17T04:50:44;9.10;;;1.75;;
47866;SDS011;33628;50.806;11.586;2023-05-17T04:53:13;4.32;;;1.42;;
47866;SDS011;33628;50.806;11.586;2023-05-17T04:55:43;2.88;;;1.40;;
47866;SDS011;33628;50.806;11.586;2023-05-17T04:58:11;3.83;;;1.63;;
47866;SDS011;33628;50.806;11.586;2023-05-17T05:00:38;3.33;;;1.38;;
47866;SDS011;33628;50.806;11.586;2023-05-17T05:03:07;9.75;;;1.73;;
47866;SDS011;33628;50.806;11.586;2023-05-17T05:05:34;6.88;;;1.67;;
47866;SDS011;33628;50.806;11.586;2023-05-17T05:08:01;4.30;;;1.58;;
47866;SDS011;33628;50.806;11.586;2023-05-17T05:10:30;4.38;;;1.60;;
47866;SDS011;33628;50.806;11.586;2023-05-17T05:12:57;5.63;;;2.22;;
47866;SDS011;33628;50.806;11.586;2023-05-17T05:15:24;6.85;;;2.00;;
47866;SDS011;33628;50.806;11.586;2023-05-17T05:22:02;6.68;;;1.80;;
47866;SDS011;33628;50.806;11.586;2023-05-17T05:24:31;5.68;;;1.98;;
47866;SDS011;33628;50.806;11.586;2023-05-17T05:26:59;6.03;;;2.90;;
47866;SDS011;33628;50.806;11.586;2023-05-17T05:29:27;12.63;;;3.55;;
47866;SDS011;33628;50.806;11.586;2023-05-17T05:31:54;8.68;;;2.67;;
47866;SDS011;33628;50.806;11.586;2023-05-17T05:34:21;7.03;;;2.70;;
47866;SDS011;33628;50.806;11.586;2023-05-17T05:36:48;7.90;;;1.92;;
47866;SDS011;33628;50.806;11.586;2023-05-17T05:39:15;6.43;;;2.63;;
47866;SDS011;33628;50.806;11.586;2023-05-17T05:41:42;6.85;;;2.50;;
47866;SDS011;33628;50.806;11.586;2023-05-17T05:44:10;10.75;;;2.55;;
47866;SDS011;33628;50.806;11.586;2023-05-17T05:46:37;6.50;;;2.78;;
47866;SDS011;33628;50.806;11.586;2023-05-17T05:49:05;8.55;;;2.97;;
47866;SDS011;33628;50.806;11.586;2023-05-17T05:51:33;5.43;;;2.40;;
47866;SDS011;33628;50.806;11.586;2023-05-17T05:54:00;8.10;;;2.30;;
47866;SDS011;33628;50.806;11.586;2023-05-17T05:56:27;9.48;;;2.50;;
47866;SDS011;33628;50.806;11.586;2023-05-17T05:58:55;11.18;;;2.72;;
47866;SDS011;33628;50.806;11.586;2023-05-17T06:01:24;6.43;;;2.95;;
47866;SDS011;33628;50.806;11.586;2023-05-17T06:03:51;6.20;;;2.70;;
47866;SDS011;33628;50.806;11.586;2023-05-17T06:06:18;12.65;;;3.05;;
47866;SDS011;33628;50.806;11.586;2023-05-17T06:08:45;5.55;;;2.65;;
47866;SDS011;33628;50.806;11.586;2023-05-17T06:11:12;10.00;;;2.85;;
47866;SDS011;33628;50.806;11.586;2023-05-17T06:13:39;12.52;;;3.20;;
47866;SDS011;33628;50.806;11.586;2023-05-17T06:16:06;9.73;;;3.22;;
47866;SDS011;33628;50.806;11.586;2023-05-17T06:18:34;11.23;;;3.15;;
47866;SDS011;33628;50.806;11.586;2023-05-17T06:21:01;7.15;;;2.95;;
47866;SDS011;33628;50.806;11.586;2023-05-17T06:23:27;9.10;;;3.30;;
47866;SDS011;33628;50.806;11.586;2023-05-17T06:25:55;9.57;;;2.90;;
47866;SDS011;33628;50.806;11.586;2023-05-17T06:28:21;10.15;;;3.45;;
47866;SDS011;33628;50.806;11.586;2023-05-17T06:30:48;10.98;;;3.47;;
47866;SDS011;33628;50.806;11.586;2023-05-17T06:33:15;8.10;;;3.17;;
47866;SDS011;33628;50.806;11.586;2023-05-17T06:35:43;10.15;;;3.47;;
47866;SDS011;33628;50.806;11.586;2023-05-17T06:38:10;9.50;;;3.78;;
47866;SDS011;33628;50.806;11.586;2023-05-17T06:40:36;10.18;;;3.28;;
47866;SDS011;33628;50.806;11.586;2023-05-17T06:43:03;10.43;;;3.53;;
47866;SDS011;33628;50.806;11.586;2023-05-17T06:45:30;9.38;;;3.55;;
47866;SDS011;33628;50.806;11.586;2023-05-17T06:47:57;8.57;;;3.47;;
47866;SDS011;33628;50.806;11.586;2023-05-17T06:50:23;9.65;;;3.83;;
47866;SDS011;33628;50.806;11.586;2023-05-17T06:52:54;10.55;;;3.42;;
47866;SDS011;33628;50.806;11.586;2023-05-17T06:55:21;12.30;;;3.90;;
47866;SDS011;33628;50.806;11.586;2023-05-17T06:57:50;15.45;;;4.05;;
47866;SDS011;33628;50.806;11.586;2023-05-17T07:00:17;14.80;;;3.88;;
47866;SDS011;33628;50.806;11.586;2023-05-17T07:02:44;9.52;;;3.90;;
47866;SDS011;33628;50.806;11.586;2023-05-17T07:05:11;15.40;;;3.80;;
47866;SDS011;33628;50.806;11.586;2023-05-17T07:07:38;10.50;;;3.53;;
47866;SDS011;33628;50.806;11.586;2023-05-17T07:10:10;11.95;;;3.97;;
47866;SDS011;33628;50.806;11.586;2023-05-17T07:12:37;10.43;;;4.07;;
47866;SDS011;33628;50.806;11.586;2023-05-17T07:15:06;17.30;;;3.97;;
47866;SDS011;33628;50.806;11.586;2023-05-17T07:17:33;14.27;;;4.25;;
47866;SDS011;33628;50.806;11.586;2023-05-17T07:20:01;11.45;;;3.92;;
47866;SDS011;33628;50.806;11.586;2023-05-17T07:22:30;16.40;;;3.78;;
47866;SDS011;33628;50.806;11.586;2023-05-17T07:24:58;12.55;;;3.30;;
47866;SDS011;33628;50.806;11.586;2023-05-17T07:27:27;9.80;;;3.40;;
47866;SDS011;33628;50.806;11.586;2023-05-17T07:29:54;9.90;;;3.47;;
47866;SDS011;33628;50.806;11.586;2023-05-17T07:32:20;11.55;;;3.58;;
47866;SDS011;33628;50.806;11.586;2023-05-17T07:34:48;16.10;;;3.78;;
47866;SDS011;33628;50.806;11.586;2023-05-17T07:37:16;11.75;;;3.83;;
47866;SDS011;33628;50.806;11.586;2023-05-17T07:39:43;9.05;;;3.38;;
47866;SDS011;33628;50.806;11.586;2023-05-17T07:42:09;9.52;;;3.85;;
47866;SDS011;33628;50.806;11.586;2023-05-17T07:44:37;14.07;;;3.80;;
47866;SDS011;33628;50.806;11.586;2023-05-17T07:47:04;9.88;;;3.70;;
47866;SDS011;33628;50.806;11.586;2023-05-17T07:49:32;12.23;;;3.10;;
47866;SDS011;33628;50.806;11.586;2023-05-17T07:51:59;12.23;;;4.07;;
47866;SDS011;33628;50.806;11.586;2023-05-17T07:59:07;10.85;;;3.97;;
47866;SDS011;33628;50.806;11.586;2023-05-17T08:10:47;13.98;;;4.03;;
47866;SDS011;33628;50.806;11.586;2023-05-17T08:13:14;13.60;;;4.07;;
47866;SDS011;33628;50.806;11.586;2023-05-17T08:15:41;11.05;;;3.75;;
47866;SDS011;33628;50.806;11.586;2023-05-17T08:18:08;11.85;;;4.63;;
47866;SDS011;33628;50.806;11.586;2023-05-17T08:20:35;10.52;;;3.50;;
47866;SDS011;33628;50.806;11.586;2023-05-17T08:23:02;9.98;;;3.70;;
47866;SDS011;33628;50.806;11.586;2023-05-17T08:25:29;6.60;;;3.17;;
47866;SDS011;33628;50.806;11.586;2023-05-17T08:27:57;12.35;;;3.40;;
47866;SDS011;33628;50.806;11.586;2023-05-17T08:30:24;14.40;;;3.65;;
47866;SDS011;33628;50.806;11.586;2023-05-17T08:32:51;10.43;;;3.70;;
47866;SDS011;33628;50.806;11.586;2023-05-17T08:35:18;11.93;;;3.17;;
47866;SDS011;33628;50.806;11.586;2023-05-17T08:37:46;8.95;;;3.42;;
47866;SDS011;33628;50.806;11.586;2023-05-17T08:40:12;15.70;;;4.32;;
47866;SDS011;33628;50.806;11.586;2023-05-17T08:42:39;12.68;;;4.80;;
47866;SDS011;33628;50.806;11.586;2023-05-17T08:45:08;9.52;;;4.03;;
47866;SDS011;33628;50.806;11.586;2023-05-17T08:47:36;11.25;;;4.03;;
47866;SDS011;33628;50.806;11.586;2023-05-17T08:50:05;12.40;;;5.80;;
47866;SDS011;33628;50.806;11.586;2023-05-17T08:52:32;12.77;;;3.70;;
47866;SDS011;33628;50.806;11.586;2023-05-17T08:55:01;14.45;;;4.40;;
47866;SDS011;33628;50.806;11.586;2023-05-17T08:57:31;16.77;;;4.85;;
47866;SDS011;33628;50.806;11.586;2023-05-17T09:00:00;12.63;;;3.95;;
47866;SDS011;33628;50.806;11.586;2023-05-17T09:02:32;15.27;;;3.85;;
47866;SDS011;33628;50.806;11.586;2023-05-17T09:05:00;12.95;;;3.80;;
47866;SDS011;33628;50.806;11.586;2023-05-17T09:07:27;8.43;;;3.50;;
47866;SDS011;33628;50.806;11.586;2023-05-17T09:09:54;10.85;;;3.20;;
47866;SDS011;33628;50.806;11.586;2023-05-17T09:12:21;12.90;;;3.22;;
47866;SDS011;33628;50.806;11.586;2023-05-17T09:14:48;8.32;;;4.32;;
47866;SDS011;33628;50.806;11.586;2023-05-17T09:17:15;9.15;;;3.28;;
47866;SDS011;33628;50.806;11.586;2023-05-17T09:19:44;11.38;;;3.85;;
47866;SDS011;33628;50.806;11.586;2023-05-17T09:22:12;10.73;;;3.92;;
47866;SDS011;33628;50.806;11.586;2023-05-17T09:24:40;11.73;;;3.40;;
47866;SDS011;33628;50.806;11.586;2023-05-17T09:27:07;16.70;;;3.53;;
47866;SDS011;33628;50.806;11.586;2023-05-17T09:29:34;13.55;;;3.60;;
47866;SDS011;33628;50.806;11.586;2023-05-17T09:32:13;14.10;;;3.65;;
47866;SDS011;33628;50.806;11.586;2023-05-17T09:34:40;11.85;;;3.85;;
47866;SDS011;33628;50.806;11.586;2023-05-17T09:37:15;11.05;;;4.15;;
47866;SDS011;33628;50.806;11.586;2023-05-17T09:39:42;9.07;;;3.75;;
47866;SDS011;33628;50.806;11.586;2023-05-17T09:42:11;12.77;;;3.90;;
47866;SDS011;33628;50.806;11.586;2023-05-17T09:44:45;23.00;;;6.10;;
47866;SDS011;33628;50.806;11.586;2023-05-17T09:47:24;13.43;;;3.72;;
47866;SDS011;33628;50.806;11.586;2023-05-17T09:52:19;11.63;;;2.80;;
47866;SDS011;33628;50.806;11.586;2023-05-17T09:54:53;9.02;;;3.50;;
47866;SDS011;33628;50.806;11.586;2023-05-17T09:57:21;11.23;;;4.00;;
47866;SDS011;33628;50.806;11.586;2023-05-17T09:59:48;9.48;;;4.00;;
47866;SDS011;33628;50.806;11.586;2023-05-17T10:02:18;9.05;;;3.20;;
47866;SDS011;33628;50.806;11.586;2023-05-17T10:04:47;12.00;;;3.25;;
47866;SDS011;33628;50.806;11.586;2023-05-17T10:07:17;12.32;;;4.53;;
47866;SDS011;33628;50.806;11.586;2023-05-17T10:09:47;13.63;;;4.28;;
47866;SDS011;33628;50.806;11.586;2023-05-17T10:12:34;7.30;;;3.50;;
47866;SDS011;33628;50.806;11.586;2023-05-17T10:15:03;10.20;;;3.13;;
47866;SDS011;33628;50.806;11.586;2023-05-17T10:17:31;9.13;;;3.40;;
47866;SDS011;33628;50.806;11.586;2023-05-17T10:20:03;7.18;;;2.90;;
47866;SDS011;33628;50.806;11.586;2023-05-17T10:22:34;10.98;;;3.08;;
47866;SDS011;33628;50.806;11.586;2023-05-17T10:25:02;10.00;;;2.78;;
47866;SDS011;33628;50.806;11.586;2023-05-17T10:27:29;9.93;;;3.50;;
47866;SDS011;33628;50.806;11.586;2023-05-17T10:29:56;11.18;;;3.65;;
47866;SDS011;33628;50.806;11.586;2023-05-17T10:32:23;8.57;;;2.90;;
47866;SDS011;33628;50.806;11.586;2023-05-17T10:34:53;8.50;;;2.92;;
47866;SDS011;33628;50.806;11.586;2023-05-17T10:41:27;9.63;;;3.17;;
47866;SDS011;33628;50.806;11.586;2023-05-17T10:43:57;7.88;;;3.08;;
47866;SDS011;33628;50.806;11.586;2023-05-17T10:46:24;7.70;;;2.40;;
47866;SDS011;33628;50.806;11.586;2023-05-17T10:48:53;8.75;;;2.88;;
47866;SDS011;33628;50.806;11.586;2023-05-17T10:51:21;15.43;;;3.38;;
47866;SDS011;33628;50.806;11.586;2023-05-17T10:54:03;7.70;;;2.90;;
47866;SDS011;33628;50.806;11.586;2023-05-17T10:56:32;9.80;;;3.33;;
47866;SDS011;33628;50.806;11.586;2023-05-17T10:59:15;11.45;;;2.72;;
47866;SDS011;33628;50.806;11.586;2023-05-17T11:04:22;8.65;;;2.95;;
47866;SDS011;33628;50.806;11.586;2023-05-17T11:06:50;9.73;;;3.42;;
47866;SDS011;33628;50.806;11.586;2023-05-17T11:09:18;12.13;;;3.60;;
47866;SDS011;33628;50.806;11.586;2023-05-17T11:12:05;12.32;;;3.22;;
47866;SDS011;33628;50.806;11.586;2023-05-17T11:14:42;6.03;;;2.80;;
47866;SDS011;33628;50.806;11.586;2023-05-17T11:17:11;10.00;;;3.22;;
47866;SDS011;33628;50.806;11.586;2023-05-17T11:19:47;9.32;;;2.75;;
47866;SDS011;33628;50.806;11.586;2023-05-17T11:22:17;7.60;;;3.05;;
47866;SDS011;33628;50.806;11.586;2023-05-17T11:24:44;11.98;;;2.90;;
47866;SDS011;33628;50.806;11.586;2023-05-17T11:27:15;11.68;;;3.25;;
47866;SDS011;33628;50.806;11.586;2023-05-17T11:29:45;7.97;;;2.92;;
47866;SDS011;33628;50.806;11.586;2023-05-17T11:32:12;14.43;;;3.15;;
47866;SDS011;33628;50.806;11.586;2023-05-17T11:34:39;8.63;;;3.15;;
47866;SDS011;33628;50.806;11.586;2023-05-17T11:37:09;9.07;;;3.35;;
47866;SDS011;33628;50.806;11.586;2023-05-17T11:39:36;11.00;;;3.00;;
47866;SDS011;33628;50.806;11.586;2023-05-17T11:42:27;14.73;;;3.53;;
47866;SDS011;33628;50.806;11.586;2023-05-17T11:44:55;12.57;;;3.05;;
47866;SDS011;33628;50.806;11.586;2023-05-17T11:47:23;10.80;;;3.10;;
47866;SDS011;33628;50.806;11.586;2023-05-17T11:49:50;6.50;;;2.70;;
47866;SDS011;33628;50.806;11.586;2023-05-17T11:52:17;12.15;;;3.38;;
47866;SDS011;33628;50.806;11.586;2023-05-17T11:54:44;6.78;;;2.88;;
47866;SDS011;33628;50.806;11.586;2023-05-17T11:57:11;11.60;;;3.30;;
47866;SDS011;33628;50.806;11.586;2023-05-17T11:59:44;10.48;;;3.60;;
47866;SDS011;33628;50.806;11.586;2023-05-17T12:02:19;11.63;;;3.08;;
47866;SDS011;33628;50.806;11.586;2023-05-17T12:04:51;16.90;;;3.40;;
47866;SDS011;33628;50.806;11.586;2023-05-17T12:07:18;8.10;;;2.90;;
47866;SDS011;33628;50.806;11.586;2023-05-17T12:09:44;8.50;;;2.88;;
47866;SDS011;33628;50.806;11.586;2023-05-17T12:12:11;11.68;;;2.78;;
47866;SDS011;33628;50.806;11.586;2023-05-17T12:14:38;11.15;;;2.58;;
47866;SDS011;33628;50.806;11.586;2023-05-17T12:17:10;9.73;;;2.33;;
47866;SDS011;33628;50.806;11.586;2023-05-17T12:19:38;10.98;;;2.58;;
47866;SDS011;33628;50.806;11.586;2023-05-17T12:22:05;7.75;;;2.45;;
47866;SDS011;33628;50.806;11.586;2023-05-17T12:24:36;5.65;;;2.47;;
47866;SDS011;33628;50.806;11.586;2023-05-17T12:27:03;8.35;;;2.60;;
47866;SDS011;33628;50.806;11.586;2023-05-17T12:29:30;8.85;;;3.45;;
47866;SDS011;33628;50.806;11.586;2023-05-17T12:31:57;9.07;;;3.30;;
47866;SDS011;33628;50.806;11.586;2023-05-17T12:34:27;7.97;;;2.40;;
47866;SDS011;33628;50.806;11.586;2023-05-17T12:36:54;10.18;;;2.38;;
47866;SDS011;33628;50.806;11.586;2023-05-17T12:39:21;10.25;;;2.63;;
47866;SDS011;33628;50.806;11.586;2023-05-17T12:41:48;7.43;;;3.13;;
47866;SDS011;33628;50.806;11.586;2023-05-17T12:44:18;6.65;;;2.25;;
47866;SDS011;33628;50.806;11.586;2023-05-17T12:46:46;12.65;;;2.65;;
47866;SDS011;33628;50.806;11.586;2023-05-17T12:49:18;10.32;;;2.30;;
47866;SDS011;33628;50.806;11.586;2023-05-17T12:51:49;9.13;;;2.22;;
47866;SDS011;33628;50.806;11.586;2023-05-17T12:54:24;10.48;;;1.92;;
47866;SDS011;33628;50.806;11.586;2023-05-17T12:56:52;9.73;;;2.13;;
47866;SDS011;33628;50.806;11.586;2023-05-17T12:59:19;8.13;;;2.00;;
47866;SDS011;33628;50.806;11.586;2023-05-17T13:01:50;10.57;;;2.03;;
47866;SDS011;33628;50.806;11.586;2023-05-17T13:04:18;6.30;;;1.85;;
47866;SDS011;33628;50.806;11.586;2023-05-17T13:06:47;7.10;;;2.22;;
47866;SDS011;33628;50.806;11.586;2023-05-17T13:09:18;10.80;;;2.03;;
47866;SDS011;33628;50.806;11.586;2023-05-17T13:11:49;5.90;;;1.50;;
47866;SDS011;33628;50.806;11.586;2023-05-17T13:14:32;6.13;;;1.88;;
47866;SDS011;33628;50.806;11.586;2023-05-17T13:17:00;8.50;;;2.13;;
47866;SDS011;33628;50.806;11.586;2023-05-17T13:19:26;8.98;;;1.88;;
47866;SDS011;33628;50.806;11.586;2023-05-17T13:21:53;11.68;;;2.13;;
47866;SDS011;33628;50.806;11.586;2023-05-17T13:24:21;9.20;;;1.80;;
47866;SDS011;33628;50.806;11.586;2023-05-17T13:26:47;11.07;;;2.08;;
47866;SDS011;33628;50.806;11.586;2023-05-17T13:29:14;8.18;;;1.70;;
47866;SDS011;33628;50.806;11.586;2023-05-17T13:31:41;11.75;;;2.05;;
47866;SDS011;33628;50.806;11.586;2023-05-17T13:34:07;9.75;;;2.13;;
47866;SDS011;33628;50.806;11.586;2023-05-17T13:36:34;10.30;;;2.08;;
47866;SDS011;33628;50.806;11.586;2023-05-17T13:39:00;8.55;;;1.90;;
47866;SDS011;33628;50.806;11.586;2023-05-17T13:41:29;5.30;;;1.85;;
47866;SDS011;33628;50.806;11.586;2023-05-17T13:43:55;10.55;;;2.00;;
47866;SDS011;33628;50.806;11.586;2023-05-17T13:46:22;8.80;;;2.15;;
47866;SDS011;33628;50.806;11.586;2023-05-17T13:48:49;9.77;;;2.20;;
47866;SDS011;33628;50.806;11.586;2023-05-17T13:51:16;8.48;;;1.75;;
47866;SDS011;33628;50.806;11.586;2023-05-17T13:53:42;10.50;;;1.88;;
47866;SDS011;33628;50.806;11.586;2023-05-17T13:56:09;8.50;;;1.73;;
47866;SDS011;33628;50.806;11.586;2023-05-17T13:58:37;6.35;;;1.33;;
47866;SDS011;33628;50.806;11.586;2023-05-17T14:01:04;9.02;;;2.53;;
47866;SDS011;33628;50.806;11.586;2023-05-17T14:03:31;10.25;;;1.65;;
47866;SDS011;33628;50.806;11.586;2023-05-17T14:05:58;9.75;;;2.53;;
47866;SDS011;33628;50.806;11.586;2023-05-17T14:08:24;10.63;;;1.75;;
47866;SDS011;33628;50.806;11.586;2023-05-17T14:10:52;12.05;;;2.03;;
47866;SDS011;33628;50.806;11.586;2023-05-17T14:13:19;8.50;;;1.90;;
47866;SDS011;33628;50.806;11.586;2023-05-17T14:15:47;11.20;;;2.22;;
47866;SDS011;33628;50.806;11.586;2023-05-17T14:18:14;8.85;;;1.75;;
47866;SDS011;33628;50.806;11.586;2023-05-17T14:20:41;10.75;;;2.15;;
47866;SDS011;33628;50.806;11.586;2023-05-17T14:23:08;10.82;;;2.13;;
47866;SDS011;33628;50.806;11.586;2023-05-17T14:25:34;8.18;;;1.85;;
47866;SDS011;33628;50.806;11.586;2023-05-17T14:28:01;8.23;;;1.85;;
47866;SDS011;33628;50.806;11.586;2023-05-17T14:30:28;12.27;;;2.67;;
47866;SDS011;33628;50.806;11.586;2023-05-17T14:32:56;11.85;;;2.42;;
47866;SDS011;33628;50.806;11.586;2023-05-17T14:39:32;6.47;;;1.70;;
47866;SDS011;33628;50.806;11.586;2023-05-17T14:41:58;8.15;;;1.77;;
47866;SDS011;33628;50.806;11.586;2023-05-17T14:44:25;10.38;;;2.10;;
47866;SDS011;33628;50.806;11.586;2023-05-17T14:46:52;9.73;;;2.08;;
47866;SDS011;33628;50.806;11.586;2023-05-17T14:49:20;6.45;;;1.80;;
47866;SDS011;33628;50.806;11.586;2023-05-17T14:51:47;11.85;;;2.13;;
47866;SDS011;33628;50.806;11.586;2023-05-17T14:54:13;7.15;;;1.85;;
47866;SDS011;33628;50.806;11.586;2023-05-17T14:56:41;12.55;;;2.50;;
47866;SDS011;33628;50.806;11.586;2023-05-17T14:59:08;8.07;;;1.90;;
47866;SDS011;33628;50.806;11.586;2023-05-17T15:01:34;11.50;;;2.33;;
47866;SDS011;33628;50.806;11.586;2023-05-17T15:04:04;10.10;;;2.00;;
47866;SDS011;33628;50.806;11.586;2023-05-17T15:06:33;8.90;;;1.60;;
47866;SDS011;33628;50.806;11.586;2023-05-17T15:09:00;8.18;;;2.03;;